Thunder radar more information blitzortung!


Radar de pluja more information rain snow radar


Visita la nostra xarxa de llocs de meteo:

Template documentation
and downloads

And another site



No particular awareness of the weather is required.    There are no Weather-warnings

Pagina Historial Weather Underground text

Diari Resum Agost 24, 2017 Unitats:  Tant    Imperial   Mètric
« Previous Dia
SegĂźent Dia »
Diari Setmana Mensual Anual Personalitzada
  Maxima: Minima: Media:
Temperatura: 93.9 °F /  34.4 °C 69.1 °F /  20.6 °C 81.3 °F /  27.4 °C
Punt de rosada: 65.1 °F /  18.4 °C 47.1 °F /  8.4 °C 56.3 °F /  13.5 °C
Humitat: 75 % 25 % 45 %
Wind Speed: 11.5 mph /  18.5 km/h - 3.6 mph /  5.8 km/h
RĂ fegues de vent: 11.5 mph /  18.5 km/h - -
Vent:- - SW
Pression baro: 30 in /  1016.8 hPa 30 in /  1014.8 hPa -
Precipitacions: 0 in /  0.0 mm    
Historical Graphs
 
 
Dades de taula per Agost 24, 2017
Temps Temperatura Punt de rosada Pression baro Vent Wind Speed RĂ fegues de vent Humitat Rainfall Rate (Hourly)
00:00 71.4 °F /  21.9 °C 61.9 °F /  16.6 °C 30 in /  1015.8 hPa WSW 3 mph /  4.8 km/h 6 mph /  9.7 km/h 72 % 0 in /  0.0 mm
00:02 73.8 °F /  23.2 °C 63.3 °F /  17.4 °C 30 in /  1015.8 hPa SSW 2.4 mph /  3.9 km/h 2.4 mph /  3.9 km/h 70 % 0 in /  0.0 mm
00:07 73.6 °F /  23.1 °C 63.7 °F /  17.6 °C 30 in /  1015.8 hPa SW 1.4 mph /  2.3 km/h 1.4 mph /  2.3 km/h 71 % 0 in /  0.0 mm
00:10 71.8 °F /  22.1 °C 59.7 °F /  15.4 °C 30 in /  1015.8 hPa WSW 1 mph /  1.6 km/h 3 mph /  4.8 km/h 66 % 0 in /  0.0 mm
00:20 71.8 °F /  22.1 °C 59.4 °F /  15.2 °C 30 in /  1015.8 hPa Calm   2 mph /  3.2 km/h 65 % 0 in /  0.0 mm
00:30 71.8 °F /  22.1 °C 58.1 °F /  14.5 °C 30 in /  1014.8 hPa Calm   1 mph /  1.6 km/h 62 % 0 in /  0.0 mm
00:40 71.4 °F /  21.9 °C 59 °F /  15.0 °C 30 in /  1014.8 hPa SW 2 mph /  3.2 km/h 5 mph /  8.0 km/h 65 % 0 in /  0.0 mm
00:50 71.1 °F /  21.7 °C 58.6 °F /  14.8 °C 30 in /  1014.8 hPa SW 2 mph /  3.2 km/h 4 mph /  6.4 km/h 65 % 0 in /  0.0 mm
01:00 71.4 °F /  21.9 °C 59 °F /  15.0 °C 30 in /  1014.8 hPa WSW 3 mph /  4.8 km/h 6 mph /  9.7 km/h 65 % 0 in /  0.0 mm
01:10 71.6 °F /  22.0 °C 58.3 °F /  14.6 °C 30 in /  1014.8 hPa SW 1 mph /  1.6 km/h 3 mph /  4.8 km/h 63 % 0 in /  0.0 mm
01:30 71.2 °F /  21.8 °C 58.5 °F /  14.7 °C 30 in /  1014.8 hPa WSW 1 mph /  1.6 km/h 2 mph /  3.2 km/h 64 % 0 in /  0.0 mm
01:40 71.1 °F /  21.7 °C 58.3 °F /  14.6 °C 30 in /  1014.8 hPa Calm   2 mph /  3.2 km/h 64 % 0 in /  0.0 mm
01:50 71.1 °F /  21.7 °C 57.7 °F /  14.3 °C 30 in /  1014.8 hPa SW 1 mph /  1.6 km/h 2 mph /  3.2 km/h 63 % 0 in /  0.0 mm
02:00 70.7 °F /  21.5 °C 57.6 °F /  14.2 °C 30 in /  1014.8 hPa Calm   2 mph /  3.2 km/h 63 % 0 in /  0.0 mm
02:10 70.9 °F /  21.6 °C 57.7 °F /  14.3 °C 30 in /  1014.8 hPa SW 3 mph /  4.8 km/h 3 mph /  4.8 km/h 63 % 0 in /  0.0 mm
02:20 70.7 °F /  21.5 °C 57.6 °F /  14.2 °C 30 in /  1014.8 hPa WSW 1 mph /  1.6 km/h 3 mph /  4.8 km/h 63 % 0 in /  0.0 mm
02:30 70.9 °F /  21.6 °C 57.2 °F /  14.0 °C 30 in /  1014.8 hPa West 1 mph /  1.6 km/h 2 mph /  3.2 km/h 62 % 0 in /  0.0 mm
02:40 70.3 °F /  21.3 °C 56.7 °F /  13.7 °C 30 in /  1014.8 hPa SW 2 mph /  3.2 km/h 3 mph /  4.8 km/h 62 % 0 in /  0.0 mm
02:50 70.2 °F /  21.2 °C 57 °F /  13.9 °C 30 in /  1014.8 hPa SW 1 mph /  1.6 km/h 2 mph /  3.2 km/h 63 % 0 in /  0.0 mm
03:00 70.2 °F /  21.2 °C 57 °F /  13.9 °C 30 in /  1014.8 hPa Calm   2 mph /  3.2 km/h 63 % 0 in /  0.0 mm
03:10 70.5 °F /  21.4 °C 56.8 °F /  13.8 °C 30 in /  1014.8 hPa SSW 1 mph /  1.6 km/h 2 mph /  3.2 km/h 62 % 0 in /  0.0 mm
03:20 70.5 °F /  21.4 °C 56.8 °F /  13.8 °C 30 in /  1014.8 hPa West 1 mph /  1.6 km/h 1 mph /  1.6 km/h 62 % 0 in /  0.0 mm
03:30 71.1 °F /  21.7 °C 57.4 °F /  14.1 °C 30 in /  1014.8 hPa WNW 1 mph /  1.6 km/h 2 mph /  3.2 km/h 62 % 0 in /  0.0 mm
03:40 71.2 °F /  21.8 °C 57 °F /  13.9 °C 30 in /  1014.8 hPa North 1 mph /  1.6 km/h 2 mph /  3.2 km/h 61 % 0 in /  0.0 mm
03:50 70.9 °F /  21.6 °C 56.8 °F /  13.8 °C 30 in /  1014.8 hPa NE 1 mph /  1.6 km/h 2 mph /  3.2 km/h 61 % 0 in /  0.0 mm
04:00 70.9 °F /  21.6 °C 56.8 °F /  13.8 °C 30 in /  1014.8 hPa ENE 2 mph /  3.2 km/h 2 mph /  3.2 km/h 61 % 0 in /  0.0 mm
04:10 71.1 °F /  21.7 °C 56.8 °F /  13.8 °C 30 in /  1014.8 hPa WSW 1 mph /  1.6 km/h 3 mph /  4.8 km/h 61 % 0 in /  0.0 mm
04:20 71.4 °F /  21.9 °C 57.4 °F /  14.1 °C 30 in /  1014.8 hPa WSW 1 mph /  1.6 km/h 3 mph /  4.8 km/h 61 % 0 in /  0.0 mm
04:40 73 °F /  22.8 °C 58.3 °F /  14.6 °C 30 in /  1015.8 hPa Calm   2 mph /  3.2 km/h 60 % 0 in /  0.0 mm
04:50 73.9 °F /  23.3 °C 58.6 °F /  14.8 °C 30 in /  1014.8 hPa SW 1 mph /  1.6 km/h 1 mph /  1.6 km/h 59 % 0 in /  0.0 mm
05:00 73.8 °F /  23.2 °C 58.1 °F /  14.5 °C 30 in /  1015.8 hPa Calm   2 mph /  3.2 km/h 58 % 0 in /  0.0 mm
09:00 88.5 °F /  31.4 °C 63.1 °F /  17.3 °C 30 in /  1015.8 hPa SW 3 mph /  4.8 km/h 6 mph /  9.7 km/h 43 % 0 in /  0.0 mm
09:10 89.1 °F /  31.7 °C 63 °F /  17.2 °C 30 in /  1015.8 hPa SW 3 mph /  4.8 km/h 8 mph /  12.9 km/h 42 % 0 in /  0.0 mm
09:20 90.3 °F /  32.4 °C 64 °F /  17.8 °C 30 in /  1015.8 hPa SW 2 mph /  3.2 km/h 4 mph /  6.4 km/h 42 % 0 in /  0.0 mm
09:30 89.8 °F /  32.1 °C 63 °F /  17.2 °C 30 in /  1015.8 hPa SW 6 mph /  9.7 km/h 6 mph /  9.7 km/h 41 % 0 in /  0.0 mm
09:40 90.1 °F /  32.3 °C 62.6 °F /  17.0 °C 30 in /  1015.8 hPa SW 5 mph /  8.0 km/h 8 mph /  12.9 km/h 40 % 0 in /  0.0 mm
09:50 91.8 °F /  33.2 °C 62.4 °F /  16.9 °C 30 in /  1015.8 hPa SW 3 mph /  4.8 km/h 5 mph /  8.0 km/h 38 % 0 in /  0.0 mm
10:04 73 °F /  22.8 °C 61 °F /  16.1 °C 30 in /  1014.8 hPa SSW 2.3 mph /  3.7 km/h 2.3 mph /  3.7 km/h 66 % 0 in /  0.0 mm
10:09 73 °F /  22.8 °C 61 °F /  16.1 °C 30 in /  1014.8 hPa ESE 1.2 mph /  1.9 km/h   66 % 0 in /  0.0 mm
10:14 73.4 °F /  23.0 °C 61.3 °F /  16.3 °C 30 in /  1015.8 hPa WNW 1.2 mph /  1.9 km/h   66 % 0 in /  0.0 mm
10:19 73.8 °F /  23.2 °C 61.7 °F /  16.5 °C 30 in /  1015.8 hPa SSE 2.3 mph /  3.7 km/h 2.3 mph /  3.7 km/h 66 % 0 in /  0.0 mm
10:24 74.5 °F /  23.6 °C 62.4 °F /  16.9 °C 30 in /  1015.8 hPa SSE 2.6 mph /  4.2 km/h 2.6 mph /  4.2 km/h 66 % 0 in /  0.0 mm
10:29 75 °F /  23.9 °C 62.4 °F /  16.9 °C 30 in /  1015.8 hPa SSE 1.6 mph /  2.6 km/h 1.6 mph /  2.6 km/h 65 % 0 in /  0.0 mm
10:34 75.4 °F /  24.1 °C 61.9 °F /  16.6 °C 30 in /  1015.8 hPa SSE 2.3 mph /  3.7 km/h 2.3 mph /  3.7 km/h 63 % 0 in /  0.0 mm
10:39 75.4 °F /  24.1 °C 61.5 °F /  16.4 °C 30 in /  1015.8 hPa NNE 2.9 mph /  4.7 km/h 2.9 mph /  4.7 km/h 62 % 0 in /  0.0 mm
10:44 75.2 °F /  24.0 °C 62.6 °F /  17.0 °C 30 in /  1014.8 hPa West 2.6 mph /  4.2 km/h 2.6 mph /  4.2 km/h 65 % 0 in /  0.0 mm
10:49 74.3 °F /  23.5 °C 62.6 °F /  17.0 °C 30 in /  1014.8 hPa West 3.5 mph /  5.6 km/h 3.5 mph /  5.6 km/h 67 % 0 in /  0.0 mm
10:54 74.1 °F /  23.4 °C 63 °F /  17.2 °C 30 in /  1014.8 hPa NNW 1.4 mph /  2.3 km/h 1.4 mph /  2.3 km/h 68 % 0 in /  0.0 mm
10:59 74.3 °F /  23.5 °C 63.9 °F /  17.7 °C 30 in /  1015.8 hPa East 1.6 mph /  2.6 km/h 1.6 mph /  2.6 km/h 70 % 0 in /  0.0 mm
11:04 75.4 °F /  24.1 °C 64 °F /  17.8 °C 30 in /  1015.8 hPa WNW 2.3 mph /  3.7 km/h 2.3 mph /  3.7 km/h 68 % 0 in /  0.0 mm
11:09 76.6 °F /  24.8 °C 64.4 °F /  18.0 °C 30 in /  1015.8 hPa NNE 4.6 mph /  7.4 km/h 4.6 mph /  7.4 km/h 66 % 0 in /  0.0 mm
11:14 77.7 °F /  25.4 °C 64 °F /  17.8 °C 30 in /  1015.8 hPa WNW 3.6 mph /  5.8 km/h 3.6 mph /  5.8 km/h 63 % 0 in /  0.0 mm
11:52 82.6 °F /  28.1 °C 64.2 °F /  17.9 °C 30 in /  1015.8 hPa WSW 3.5 mph /  5.6 km/h 3.5 mph /  5.6 km/h 54 % 0 in /  0.0 mm
11:57 83.7 °F /  28.7 °C 64.8 °F /  18.2 °C 30 in /  1015.8 hPa West 5.8 mph /  9.3 km/h 5.8 mph /  9.3 km/h 53 % 0 in /  0.0 mm
12:02 84.2 °F /  29.0 °C 64.8 °F /  18.2 °C 30 in /  1015.8 hPa West 4.6 mph /  7.4 km/h 4.7 mph /  7.6 km/h 52 % 0 in /  0.0 mm
12:07 84.4 °F /  29.1 °C 64.2 °F /  17.9 °C 30 in /  1015.8 hPa SW 5.8 mph /  9.3 km/h 5.8 mph /  9.3 km/h 51 % 0 in /  0.0 mm
12:12 84.7 °F /  29.3 °C 64.6 °F /  18.1 °C 30 in /  1015.8 hPa West 4.6 mph /  7.4 km/h 4.6 mph /  7.4 km/h 51 % 0 in /  0.0 mm
12:17 85.5 °F /  29.7 °C 64.8 °F /  18.2 °C 30 in /  1015.8 hPa WSW 4.6 mph /  7.4 km/h 4.6 mph /  7.4 km/h 50 % 0 in /  0.0 mm
12:18 85.5 °F /  29.7 °C 64.8 °F /  18.2 °C 30 in /  1015.8 hPa West 4.6 mph /  7.4 km/h 4.6 mph /  7.4 km/h 50 % 0 in /  0.0 mm
12:23 85.6 °F /  29.8 °C 64.9 °F /  18.3 °C 30 in /  1015.8 hPa WSW 5.8 mph /  9.3 km/h 5.8 mph /  9.3 km/h 50 % 0 in /  0.0 mm
12:28 86 °F /  30.0 °C 64.6 °F /  18.1 °C 30 in /  1015.8 hPa SW 6.4 mph /  10.3 km/h 6.4 mph /  10.3 km/h 49 % 0 in /  0.0 mm
12:33 86.7 °F /  30.4 °C 64.8 °F /  18.2 °C 30 in /  1015.8 hPa SW 3.5 mph /  5.6 km/h 3.5 mph /  5.6 km/h 48 % 0 in /  0.0 mm
12:38 88 °F /  31.1 °C 65.1 °F /  18.4 °C 30 in /  1015.8 hPa WSW 4.6 mph /  7.4 km/h 4.6 mph /  7.4 km/h 47 % 0 in /  0.0 mm
12:43 88.3 °F /  31.3 °C 64.9 °F /  18.3 °C 30 in /  1015.8 hPa SW 4.6 mph /  7.4 km/h 4.6 mph /  7.4 km/h 46 % 0 in /  0.0 mm
14:55 91.4 °F /  33.0 °C 59.2 °F /  15.1 °C 30 in /  1014.8 hPa South 10.4 mph /  16.7 km/h 10.4 mph /  16.7 km/h 34 % 0 in /  0.0 mm
15:00 91.8 °F /  33.2 °C 60.3 °F /  15.7 °C 30 in /  1014.8 hPa WSW 5.8 mph /  9.3 km/h 5.8 mph /  9.3 km/h 35 % 0 in /  0.0 mm
15:05 92.1 °F /  33.4 °C 60.4 °F /  15.8 °C 30 in /  1014.8 hPa South 5.8 mph /  9.3 km/h 5.8 mph /  9.3 km/h 35 % 0 in /  0.0 mm
15:10 93.2 °F /  34.0 °C 61.5 °F /  16.4 °C 30 in /  1014.8 hPa West 3.1 mph /  5.0 km/h 3.3 mph /  5.3 km/h 35 % 0 in /  0.0 mm
15:15 93 °F /  33.9 °C 58.8 °F /  14.9 °C 30 in /  1014.8 hPa South 10.4 mph /  16.7 km/h 10.4 mph /  16.7 km/h 32 % 0 in /  0.0 mm
15:20 93.4 °F /  34.1 °C 60.1 °F /  15.6 °C 30 in /  1014.8 hPa WSW 5.8 mph /  9.3 km/h 6.4 mph /  10.3 km/h 33 % 0 in /  0.0 mm
15:25 92.3 °F /  33.5 °C 59 °F /  15.0 °C 30 in /  1014.8 hPa SW 8.1 mph /  13.0 km/h 8.1 mph /  13.0 km/h 33 % 0 in /  0.0 mm
15:30 92.7 °F /  33.7 °C 59.4 °F /  15.2 °C 30 in /  1014.8 hPa SW 4.6 mph /  7.4 km/h 4.6 mph /  7.4 km/h 33 % 0 in /  0.0 mm
15:35 93.9 °F /  34.4 °C 59.5 °F /  15.3 °C 30 in /  1014.8 hPa SSW 4.9 mph /  7.9 km/h 4.9 mph /  7.9 km/h 32 % 0 in /  0.0 mm
15:40 93.2 °F /  34.0 °C 56.1 °F /  13.4 °C 30 in /  1014.8 hPa SW 10.4 mph /  16.7 km/h 10.4 mph /  16.7 km/h 29 % 0 in /  0.0 mm
15:45 92.7 °F /  33.7 °C 54.9 °F /  12.7 °C 30 in /  1014.8 hPa SE 10.4 mph /  16.7 km/h 10.4 mph /  16.7 km/h 28 % 0 in /  0.0 mm
15:50 92.7 °F /  33.7 °C 54.9 °F /  12.7 °C 30 in /  1014.8 hPa WSW 11.5 mph /  18.5 km/h 11.5 mph /  18.5 km/h 28 % 0 in /  0.0 mm
15:55 92.8 °F /  33.8 °C 54.9 °F /  12.7 °C 30 in /  1014.8 hPa South 6.9 mph /  11.1 km/h 6.9 mph /  11.1 km/h 28 % 0 in /  0.0 mm
16:00 93.4 °F /  34.1 °C 55.4 °F /  13.0 °C 30 in /  1014.8 hPa SSW 7.1 mph /  11.4 km/h 7.1 mph /  11.4 km/h 28 % 0 in /  0.0 mm
16:05 92.5 °F /  33.6 °C 54.7 °F /  12.6 °C 30 in /  1014.8 hPa SSW 10.4 mph /  16.7 km/h 10.4 mph /  16.7 km/h 28 % 0 in /  0.0 mm
16:10 92.5 °F /  33.6 °C 54.7 °F /  12.6 °C 30 in /  1014.8 hPa SW 5.8 mph /  9.3 km/h 6.7 mph /  10.8 km/h 28 % 0 in /  0.0 mm
16:11 92.5 °F /  33.6 °C 54.7 °F /  12.6 °C 30 in /  1014.8 hPa South 11.5 mph /  18.5 km/h 11.5 mph /  18.5 km/h 28 % 0 in /  0.0 mm
16:16 91 °F /  32.8 °C 52.3 °F /  11.3 °C 30 in /  1014.8 hPa SW 6.9 mph /  11.1 km/h 6.9 mph /  11.1 km/h 27 % 0 in /  0.0 mm
16:21 91.9 °F /  33.3 °C 54.1 °F /  12.3 °C 30 in /  1014.8 hPa WSW 5.8 mph /  9.3 km/h 5.8 mph /  9.3 km/h 28 % 0 in /  0.0 mm
16:26 91.8 °F /  33.2 °C 53.1 °F /  11.7 °C 30 in /  1014.8 hPa SSW 6.2 mph /  10.0 km/h 6.2 mph /  10.0 km/h 27 % 0 in /  0.0 mm
16:31 92.5 °F /  33.6 °C 53.6 °F /  12.0 °C 30 in /  1014.8 hPa SSW 5.8 mph /  9.3 km/h 5.8 mph /  9.3 km/h 27 % 0 in /  0.0 mm
16:36 93.7 °F /  34.3 °C 54.7 °F /  12.6 °C 30 in /  1014.8 hPa SW 2.9 mph /  4.7 km/h 2.9 mph /  4.7 km/h 27 % 0 in /  0.0 mm
16:41 93.6 °F /  34.2 °C 54.7 °F /  12.6 °C 30 in /  1014.8 hPa SSW 6.9 mph /  11.1 km/h 6.9 mph /  11.1 km/h 27 % 0 in /  0.0 mm
16:46 93 °F /  33.9 °C 54.1 °F /  12.3 °C 30 in /  1014.8 hPa SW 8.1 mph /  13.0 km/h 8.1 mph /  13.0 km/h 27 % 0 in /  0.0 mm
16:51 92.8 °F /  33.8 °C 54 °F /  12.2 °C 30 in /  1014.8 hPa WSW 7.8 mph /  12.6 km/h 7.8 mph /  12.6 km/h 27 % 0 in /  0.0 mm
16:56 92.8 °F /  33.8 °C 54.9 °F /  12.7 °C 30 in /  1014.8 hPa SSW 8.1 mph /  13.0 km/h 8.1 mph /  13.0 km/h 28 % 0 in /  0.0 mm
17:01 92.5 °F /  33.6 °C 54.7 °F /  12.6 °C 30 in /  1014.8 hPa SW 4.6 mph /  7.4 km/h 4.6 mph /  7.4 km/h 28 % 0 in /  0.0 mm
17:06 92.3 °F /  33.5 °C 54.5 °F /  12.5 °C 30 in /  1014.8 hPa SW 5.6 mph /  9.0 km/h 5.6 mph /  9.0 km/h 28 % 0 in /  0.0 mm
17:11 92.1 °F /  33.4 °C 53.2 °F /  11.8 °C 30 in /  1014.8 hPa SW 5.8 mph /  9.3 km/h 5.8 mph /  9.3 km/h 27 % 0 in /  0.0 mm
17:16 92.7 °F /  33.7 °C 53.8 °F /  12.1 °C 30 in /  1014.8 hPa South 6.9 mph /  11.1 km/h 6.9 mph /  11.1 km/h 27 % 0 in /  0.0 mm
17:21 92.7 °F /  33.7 °C 52.9 °F /  11.6 °C 30 in /  1014.8 hPa SW 6.9 mph /  11.1 km/h 6.9 mph /  11.1 km/h 26 % 0 in /  0.0 mm
17:26 92.3 °F /  33.5 °C 53.4 °F /  11.9 °C 30 in /  1014.8 hPa SW 5.8 mph /  9.3 km/h 5.8 mph /  9.3 km/h 27 % 0 in /  0.0 mm
17:31 92.3 °F /  33.5 °C 53.4 °F /  11.9 °C 30 in /  1014.8 hPa SW 4.7 mph /  7.6 km/h 4.7 mph /  7.6 km/h 27 % 0 in /  0.0 mm
17:36 92.5 °F /  33.6 °C 53.6 °F /  12.0 °C 30 in /  1014.8 hPa SSE 3.5 mph /  5.6 km/h 3.6 mph /  5.8 km/h 27 % 0 in /  0.0 mm
17:41 92.8 °F /  33.8 °C 54 °F /  12.2 °C 30 in /  1014.8 hPa SSW 5.8 mph /  9.3 km/h 5.8 mph /  9.3 km/h 27 % 0 in /  0.0 mm
17:46 91.8 °F /  33.2 °C 52 °F /  11.1 °C 30 in /  1014.8 hPa SSW 5.8 mph /  9.3 km/h 5.8 mph /  9.3 km/h 26 % 0 in /  0.0 mm
17:51 91.6 °F /  33.1 °C 51.8 °F /  11.0 °C 30 in /  1014.8 hPa SSW 6.9 mph /  11.1 km/h 6.9 mph /  11.1 km/h 26 % 0 in /  0.0 mm
17:56 91.8 °F /  33.2 °C 52 °F /  11.1 °C 30 in /  1014.8 hPa SSW 11.5 mph /  18.5 km/h 11.5 mph /  18.5 km/h 26 % 0 in /  0.0 mm
18:01 91.6 °F /  33.1 °C 51.8 °F /  11.0 °C 30 in /  1014.8 hPa WSW 6.4 mph /  10.3 km/h 6.4 mph /  10.3 km/h 26 % 0 in /  0.0 mm
18:06 91.4 °F /  33.0 °C 51.6 °F /  10.9 °C 30 in /  1014.8 hPa SW 5.8 mph /  9.3 km/h 6.4 mph /  10.3 km/h 26 % 0 in /  0.0 mm
18:11 91 °F /  32.8 °C 51.4 °F /  10.8 °C 30 in /  1014.8 hPa SW 5.8 mph /  9.3 km/h 5.8 mph /  9.3 km/h 26 % 0 in /  0.0 mm
18:16 91.2 °F /  32.9 °C 51.4 °F /  10.8 °C 30 in /  1014.8 hPa SSW 6.9 mph /  11.1 km/h 6.9 mph /  11.1 km/h 26 % 0 in /  0.0 mm
18:21 90.5 °F /  32.5 °C 49.8 °F /  9.9 °C 30 in /  1014.8 hPa WSW 5.8 mph /  9.3 km/h 5.8 mph /  9.3 km/h 25 % 0 in /  0.0 mm
18:26 91 °F /  32.8 °C 51.4 °F /  10.8 °C 30 in /  1014.8 hPa SSW 5.8 mph /  9.3 km/h 5.8 mph /  9.3 km/h 26 % 0 in /  0.0 mm
18:31 90.5 °F /  32.5 °C 49.8 °F /  9.9 °C 30 in /  1014.8 hPa SW 8.7 mph /  14.0 km/h 8.7 mph /  14.0 km/h 25 % 0 in /  0.0 mm
18:36 89.6 °F /  32.0 °C 49.1 °F /  9.5 °C 30 in /  1014.8 hPa SW 5.8 mph /  9.3 km/h 5.8 mph /  9.3 km/h 25 % 0 in /  0.0 mm
18:41 89.6 °F /  32.0 °C 49.1 °F /  9.5 °C 30 in /  1014.8 hPa SW 5.8 mph /  9.3 km/h 5.8 mph /  9.3 km/h 25 % 0 in /  0.0 mm
18:46 89.6 °F /  32.0 °C 49.1 °F /  9.5 °C 30 in /  1014.8 hPa WSW 5.8 mph /  9.3 km/h 5.8 mph /  9.3 km/h 25 % 0 in /  0.0 mm
18:51 89.1 °F /  31.7 °C 48.7 °F /  9.3 °C 30 in /  1014.8 hPa WNW 6.9 mph /  11.1 km/h 6.9 mph /  11.1 km/h 25 % 0 in /  0.0 mm
18:56 89.1 °F /  31.7 °C 48.7 °F /  9.3 °C 30 in /  1014.8 hPa SW 6.9 mph /  11.1 km/h 6.9 mph /  11.1 km/h 25 % 0 in /  0.0 mm
19:01 88.9 °F /  31.6 °C 48.6 °F /  9.2 °C 30 in /  1014.8 hPa SW 6.9 mph /  11.1 km/h 6.9 mph /  11.1 km/h 25 % 0 in /  0.0 mm
19:06 88.3 °F /  31.3 °C 49.1 °F /  9.5 °C 30 in /  1014.8 hPa WSW 9.4 mph /  15.1 km/h 9.4 mph /  15.1 km/h 26 % 0 in /  0.0 mm
19:11 87.8 °F /  31.0 °C 48.6 °F /  9.2 °C 30 in /  1014.8 hPa SW 3.3 mph /  5.3 km/h 3.3 mph /  5.3 km/h 26 % 0 in /  0.0 mm
19:16 87.6 °F /  30.9 °C 48.6 °F /  9.2 °C 30 in /  1014.8 hPa SSW 6.9 mph /  11.1 km/h 6.9 mph /  11.1 km/h 26 % 0 in /  0.0 mm
19:21 87.1 °F /  30.6 °C 48 °F /  8.9 °C 30 in /  1014.8 hPa SW 5.8 mph /  9.3 km/h 5.8 mph /  9.3 km/h 26 % 0 in /  0.0 mm
19:26 86.5 °F /  30.3 °C 47.7 °F /  8.7 °C 30 in /  1014.8 hPa SW 5.8 mph /  9.3 km/h 5.8 mph /  9.3 km/h 26 % 0 in /  0.0 mm
19:31 86 °F /  30.0 °C 47.1 °F /  8.4 °C 30 in /  1014.8 hPa WSW 5.8 mph /  9.3 km/h 5.8 mph /  9.3 km/h 26 % 0 in /  0.0 mm
19:41 85.3 °F /  29.6 °C 47.5 °F /  8.6 °C 30 in /  1014.8 hPa SW 5.8 mph /  9.3 km/h 5.8 mph /  9.3 km/h 27 % 0 in /  0.0 mm
19:46 84.9 °F /  29.4 °C 47.1 °F /  8.4 °C 30 in /  1014.8 hPa SW 4.7 mph /  7.6 km/h 4.7 mph /  7.6 km/h 27 % 0 in /  0.0 mm
19:51 84.6 °F /  29.2 °C 47.8 °F /  8.8 °C 30 in /  1014.8 hPa SW 4.7 mph /  7.6 km/h 4.7 mph /  7.6 km/h 28 % 0 in /  0.0 mm
19:56 84.2 °F /  29.0 °C 47.7 °F /  8.7 °C 30 in /  1014.8 hPa WSW 4.6 mph /  7.4 km/h 4.6 mph /  7.4 km/h 28 % 0 in /  0.0 mm
20:01 83.8 °F /  28.8 °C 48.2 °F /  9.0 °C 30 in /  1014.8 hPa SW 6.9 mph /  11.1 km/h 6.9 mph /  11.1 km/h 29 % 0 in /  0.0 mm
20:06 83.5 °F /  28.6 °C 47.8 °F /  8.8 °C 30 in /  1014.8 hPa SW 6.9 mph /  11.1 km/h 6.9 mph /  11.1 km/h 29 % 0 in /  0.0 mm
20:11 82.9 °F /  28.3 °C 47.5 °F /  8.6 °C 30 in /  1014.8 hPa South 3.5 mph /  5.6 km/h 3.5 mph /  5.6 km/h 29 % 0 in /  0.0 mm
20:16 82.6 °F /  28.1 °C 47.1 °F /  8.4 °C 30 in /  1014.8 hPa SW 5.8 mph /  9.3 km/h 5.8 mph /  9.3 km/h 29 % 0 in /  0.0 mm
20:21 82.2 °F /  27.9 °C 47.7 °F /  8.7 °C 30 in /  1014.8 hPa WSW 4.6 mph /  7.4 km/h 4.6 mph /  7.4 km/h 30 % 0 in /  0.0 mm
20:26 81.9 °F /  27.7 °C 47.5 °F /  8.6 °C 30 in /  1014.8 hPa SW 2.6 mph /  4.2 km/h 2.6 mph /  4.2 km/h 30 % 0 in /  0.0 mm
20:31 81.3 °F /  27.4 °C 47.8 °F /  8.8 °C 30 in /  1014.8 hPa WSW 3.5 mph /  5.6 km/h 3.5 mph /  5.6 km/h 31 % 0 in /  0.0 mm
20:36 81 °F /  27.2 °C 48.4 °F /  9.1 °C 30 in /  1014.8 hPa SW 3.5 mph /  5.6 km/h 3.5 mph /  5.6 km/h 32 % 0 in /  0.0 mm
20:41 80.6 °F /  27.0 °C 48 °F /  8.9 °C 30 in /  1014.8 hPa SSW 3.1 mph /  5.0 km/h 3.1 mph /  5.0 km/h 32 % 0 in /  0.0 mm
20:46 80.2 °F /  26.8 °C 49.3 °F /  9.6 °C 30 in /  1014.8 hPa SW 3.5 mph /  5.6 km/h 3.5 mph /  5.6 km/h 34 % 0 in /  0.0 mm
20:51 79.7 °F /  26.5 °C 49.6 °F /  9.8 °C 30 in /  1014.8 hPa WSW 2.3 mph /  3.7 km/h 2.3 mph /  3.7 km/h 35 % 0 in /  0.0 mm
20:56 79.5 °F /  26.4 °C 50.2 °F /  10.1 °C 30 in /  1014.8 hPa WSW 2.3 mph /  3.7 km/h 2.3 mph /  3.7 km/h 36 % 0 in /  0.0 mm
21:01 79.2 °F /  26.2 °C 49.8 °F /  9.9 °C 30 in /  1014.8 hPa SW 2.3 mph /  3.7 km/h 2.3 mph /  3.7 km/h 36 % 0 in /  0.0 mm
21:06 78.8 °F /  26.0 °C 50.4 °F /  10.2 °C 30 in /  1014.8 hPa SW 2.3 mph /  3.7 km/h 2.3 mph /  3.7 km/h 37 % 0 in /  0.0 mm
21:11 78.6 °F /  25.9 °C 50.2 °F /  10.1 °C 30 in /  1015.8 hPa WSW 2.4 mph /  3.9 km/h 2.4 mph /  3.9 km/h 37 % 0 in /  0.0 mm
21:12 78.6 °F /  25.9 °C 50.2 °F /  10.1 °C 30 in /  1015.8 hPa WSW 2.6 mph /  4.2 km/h 2.6 mph /  4.2 km/h 37 % 0 in /  0.0 mm
21:17 78.4 °F /  25.8 °C 50.7 °F /  10.4 °C 30 in /  1015.8 hPa WSW 2.4 mph /  3.9 km/h 2.4 mph /  3.9 km/h 38 % 0 in /  0.0 mm
21:22 78.3 °F /  25.7 °C 51.3 °F /  10.7 °C 30 in /  1015.8 hPa West 4.6 mph /  7.4 km/h 4.6 mph /  7.4 km/h 39 % 0 in /  0.0 mm
21:27 77.9 °F /  25.5 °C 51.6 °F /  10.9 °C 30 in /  1015.8 hPa SW 2.3 mph /  3.7 km/h 2.3 mph /  3.7 km/h 40 % 0 in /  0.0 mm
21:32 77.5 °F /  25.3 °C 52 °F /  11.1 °C 30 in /  1015.8 hPa WSW 2.3 mph /  3.7 km/h 2.3 mph /  3.7 km/h 41 % 0 in /  0.0 mm
21:37 77.4 °F /  25.2 °C 51.8 °F /  11.0 °C 30 in /  1015.8 hPa WSW 2.4 mph /  3.9 km/h 2.4 mph /  3.9 km/h 41 % 0 in /  0.0 mm
21:42 77.4 °F /  25.2 °C 51.8 °F /  11.0 °C 30 in /  1014.8 hPa West 2 mph /  3.2 km/h 2.2 mph /  3.5 km/h 41 % 0 in /  0.0 mm
21:47 77.2 °F /  25.1 °C 52.3 °F /  11.3 °C 30 in /  1014.8 hPa WSW 2.3 mph /  3.7 km/h 2.3 mph /  3.7 km/h 42 % 0 in /  0.0 mm
21:52 77 °F /  25.0 °C 52.2 °F /  11.2 °C 30 in /  1014.8 hPa SW 2.3 mph /  3.7 km/h 2.3 mph /  3.7 km/h 42 % 0 in /  0.0 mm
21:57 76.8 °F /  24.9 °C 53.2 °F /  11.8 °C 30 in /  1014.8 hPa WSW 2.3 mph /  3.7 km/h 2.3 mph /  3.7 km/h 44 % 0 in /  0.0 mm
22:02 76.8 °F /  24.9 °C 54 °F /  12.2 °C 30 in /  1014.8 hPa WSW 1.2 mph /  1.9 km/h 1.2 mph /  1.9 km/h 45 % 0 in /  0.0 mm
22:07 76.8 °F /  24.9 °C 54 °F /  12.2 °C 30 in /  1014.8 hPa WSW 2.4 mph /  3.9 km/h 2.4 mph /  3.9 km/h 45 % 0 in /  0.0 mm
22:12 76.8 °F /  24.9 °C 54.5 °F /  12.5 °C 30 in /  1015.8 hPa WSW 2.3 mph /  3.7 km/h 2.3 mph /  3.7 km/h 46 % 0 in /  0.0 mm
22:17 76.8 °F /  24.9 °C 55 °F /  12.8 °C 30 in /  1015.8 hPa WSW 2.3 mph /  3.7 km/h 2.3 mph /  3.7 km/h 47 % 0 in /  0.0 mm
22:22 76.6 °F /  24.8 °C 55.6 °F /  13.1 °C 30 in /  1015.8 hPa SW 1.2 mph /  1.9 km/h   48 % 0 in /  0.0 mm
22:27 76.5 °F /  24.7 °C 55.9 °F /  13.3 °C 30 in /  1015.8 hPa SW 1.2 mph /  1.9 km/h 1.2 mph /  1.9 km/h 49 % 0 in /  0.0 mm
22:32 76.3 °F /  24.6 °C 55.8 °F /  13.2 °C 30 in /  1015.8 hPa Calm     49 % 0 in /  0.0 mm
22:37 76.1 °F /  24.5 °C 56.1 °F /  13.4 °C 30 in /  1015.8 hPa WSW 1.2 mph /  1.9 km/h   50 % 0 in /  0.0 mm
22:42 75.9 °F /  24.4 °C 56.5 °F /  13.6 °C 30 in /  1015.8 hPa Calm     51 % 0 in /  0.0 mm
22:47 75.7 °F /  24.3 °C 56.3 °F /  13.5 °C 30 in /  1015.8 hPa WNW 1.2 mph /  1.9 km/h 1.2 mph /  1.9 km/h 51 % 0 in /  0.0 mm
22:50 69.4 °F /  20.8 °C 60.8 °F /  16.0 °C 30 in /  1015.8 hPa Calm     74 % 0 in /  0.0 mm
22:52 75.6 °F /  24.2 °C 56.7 °F /  13.7 °C 30 in /  1015.8 hPa Calm     52 % 0 in /  0.0 mm
22:57 75.4 °F /  24.1 °C 56.5 °F /  13.6 °C 30 in /  1015.8 hPa Calm     52 % 0 in /  0.0 mm
23:00 69.6 °F /  20.9 °C 61 °F /  16.1 °C 30 in /  1015.8 hPa Calm     74 % 0 in /  0.0 mm
23:02 75.2 °F /  24.0 °C 56.5 °F /  13.6 °C 30 in /  1015.8 hPa Calm     52 % 0 in /  0.0 mm
23:07 75 °F /  23.9 °C 56.7 °F /  13.7 °C 30 in /  1015.8 hPa Calm     53 % 0 in /  0.0 mm
23:10 69.4 °F /  20.8 °C 60.8 °F /  16.0 °C 30 in /  1015.8 hPa Calm   1 mph /  1.6 km/h 74 % 0 in /  0.0 mm
23:12 74.8 °F /  23.8 °C 57.6 °F /  14.2 °C 30 in /  1015.8 hPa Calm     55 % 0 in /  0.0 mm
23:17 74.7 °F /  23.7 °C 57.4 °F /  14.1 °C 30 in /  1015.8 hPa NNE 1.2 mph /  1.9 km/h   55 % 0 in /  0.0 mm
23:20 69.4 °F /  20.8 °C 60.8 °F /  16.0 °C 30 in /  1015.8 hPa Calm     74 % 0 in /  0.0 mm
23:22 74.5 °F /  23.6 °C 57.4 °F /  14.1 °C 30 in /  1015.8 hPa NNE 1.2 mph /  1.9 km/h 1.2 mph /  1.9 km/h 55 % 0 in /  0.0 mm
23:27 74.5 °F /  23.6 °C 58.3 °F /  14.6 °C 30 in /  1015.8 hPa Calm     57 % 0 in /  0.0 mm
23:28 74.5 °F /  23.6 °C 58.3 °F /  14.6 °C 30 in /  1015.8 hPa Calm     57 % 0 in /  0.0 mm
23:30 69.4 °F /  20.8 °C 61.2 °F /  16.2 °C 30 in /  1015.8 hPa SSE 1 mph /  1.6 km/h 2 mph /  3.2 km/h 75 % 0 in /  0.0 mm
23:33 74.3 °F /  23.5 °C 59 °F /  15.0 °C 30 in /  1015.8 hPa Calm     59 % 0 in /  0.0 mm
23:38 74.1 °F /  23.4 °C 59.4 °F /  15.2 °C 30 in /  1015.8 hPa Calm     60 % 0 in /  0.0 mm
23:40 69.3 °F /  20.7 °C 61 °F /  16.1 °C 30 in /  1015.8 hPa Calm   1 mph /  1.6 km/h 75 % 0 in /  0.0 mm
23:43 73.9 °F /  23.3 °C 59.2 °F /  15.1 °C 30 in /  1016.8 hPa Calm     60 % 0 in /  0.0 mm
23:48 73.8 °F /  23.2 °C 58.5 °F /  14.7 °C 30 in /  1016.8 hPa Calm     59 % 0 in /  0.0 mm
23:50 69.1 °F /  20.6 °C 60.8 °F /  16.0 °C 30 in /  1015.8 hPa Calm     75 % 0 in /  0.0 mm
23:53 73.8 °F /  23.2 °C 59.9 °F /  15.5 °C 30 in /  1016.8 hPa WSW 1.2 mph /  1.9 km/h 1.2 mph /  1.9 km/h 62 % 0 in /  0.0 mm
23:58 73.6 °F /  23.1 °C 60.3 °F /  15.7 °C 30 in /  1015.8 hPa Calm     63 % 0 in /  0.0 mm
Meteo Sesrovires
Elogis d' Weather Underground - 3.5 mb

Guio original per  Jim McMurry - jmcmurry@mwt.net Adaptat per a la plantilla per  Wim van der Kuil - Leuven-Template.eu

Trobareu la nostra informacio del temps tambe a:

Weather Underground

AWEKAS